SCCI 231500Z 27020KT 9999 -RA BKN040 04/03 Q1001 NOSIG